Time;durP1;ratioP1;P1;durP2;ratioP2;P2;SDS_P1;SDS_P2;PMS_P1;PMS_P2;Temp;Humidity;BMP_temperature;BMP_pressure;BME280_temperature;BME280_humidity;BME280_pressure;Samples;Min_cycle;Max_cycle;Signal;HPM_P1;HPM_P2
2022/10/11 00:01:19;;;;;;;22.75;13.32;;;;;;;5.57;100.00;102362.00;5033730;28;20102;-58
2022/10/11 00:03:44;;;;;;;21.80;13.95;;;;;;;5.56;100.00;102363.09;5033865;28;20036;-58
2022/10/11 00:06:09;;;;;;;24.63;14.35;;;;;;;5.54;100.00;102367.16;5033832;28;20021;-58
2022/10/11 00:08:35;;;;;;;24.23;14.23;;;;;;;5.53;100.00;102366.28;5033580;28;20076;-58
2022/10/11 00:11:04;;;;;;;22.48;13.82;;;;;;;5.51;100.00;102373.09;5033801;28;20029;-58
2022/10/11 00:13:30;;;;;;;24.13;14.45;;;;;;;5.44;100.00;102362.22;5033684;28;20032;-56
2022/10/11 00:15:56;;;;;;;22.58;14.30;;;;;;;5.42;100.00;102367.94;5033544;28;20017;-57
2022/10/11 00:18:21;;;;;;;23.13;13.48;;;;;;;5.42;100.00;102367.94;5033487;28;20445;-57
2022/10/11 00:20:47;;;;;;;23.65;14.52;;;;;;;5.41;100.00;102366.25;5033742;28;20420;-58
2022/10/11 00:23:12;;;;;;;24.52;14.57;;;;;;;5.39;100.00;102362.91;5033402;28;20036;-58
2022/10/11 00:25:38;;;;;;;25.13;14.68;;;;;;;5.41;100.00;102366.25;5033523;28;20037;-58
2022/10/11 00:28:04;;;;;;;26.85;14.88;;;;;;;5.41;100.00;102362.69;5033375;28;20076;-57
2022/10/11 00:30:29;;;;;;;26.60;15.63;;;;;;;5.42;100.00;102367.94;5032313;28;20461;-57
2022/10/11 00:32:55;;;;;;;26.80;15.20;;;;;;;5.40;100.00;102366.50;5033235;28;20018;-57
2022/10/11 00:35:20;;;;;;;25.00;14.98;;;;;;;5.39;100.00;102376.63;5032938;28;20025;-57
2022/10/11 00:37:45;;;;;;;23.77;14.60;;;;;;;5.35;100.00;102369.94;5033195;28;20457;-58
2022/10/11 00:40:15;;;;;;;23.33;13.93;;;;;;;5.32;100.00;102370.41;5033253;28;20033;-58
2022/10/11 00:42:40;;;;;;;24.52;14.50;;;;;;;5.27;100.00;102368.38;5032915;28;20037;-58
2022/10/11 00:45:24;;;;;;;23.10;14.30;;;;;;;5.28;100.00;102370.03;5032848;28;20017;-57
2022/10/11 00:47:50;;;;;;;25.80;14.60;;;;;;;5.27;100.00;102373.84;5033088;28;20457;-58
2022/10/11 00:50:16;;;;;;;23.30;14.48;;;;;;;5.22;100.00;102375.63;5032955;28;20022;-58
2022/10/11 00:52:48;;;;;;;23.73;14.80;;;;;;;5.18;100.00;102375.25;5033147;28;20090;-59
2022/10/11 00:55:17;;;;;;;25.25;14.45;;;;;;;5.16;100.00;102377.38;5033295;28;20029;-59
2022/10/11 00:57:47;;;;;;;24.45;14.80;;;;;;;5.15;100.00;102384.78;5032754;28;20029;-59
2022/10/11 01:00:13;;;;;;;21.85;14.18;;;;;;;5.15;100.00;102386.66;5033188;28;20032;-61
2022/10/11 01:02:40;;;;;;;22.35;14.45;;;;;;;5.13;100.00;102383.34;5033173;28;20045;-59
2022/10/11 01:05:08;;;;;;;25.75;13.85;;;;;;;5.09;100.00;102391.22;5032899;28;20323;-59
2022/10/11 01:07:33;;;;;;;23.48;13.93;;;;;;;5.05;100.00;102391.91;5032673;28;20026;-59
2022/10/11 01:09:59;;;;;;;25.33;14.10;;;;;;;5.03;100.00;102396.78;5032396;28;20457;-58
2022/10/11 01:12:28;;;;;;;21.58;13.77;;;;;;;5.00;100.00;102392.59;5031969;28;20197;-59
2022/10/11 01:14:58;;;;;;;25.40;14.85;;;;;;;4.88;100.00;102373.31;5032622;28;20468;-59
2022/10/11 01:17:54;;;;;;;24.38;14.18;;;;;;;4.93;100.00;102394.56;5032186;28;20036;-57
2022/10/11 01:20:46;;;;;;;22.77;13.95;;;;;;;4.89;100.00;102391.44;5032541;28;20056;-59
2022/10/11 01:23:31;;;;;;;25.33;14.60;;;;;;;4.88;100.00;102394.41;5016630;28;20132;-57
2022/10/11 01:26:33;;;;;;;24.38;14.15;;;;;;;4.86;100.00;102400.16;5032498;28;20358;-59
2022/10/11 01:29:30;;;;;;;22.88;14.10;;;;;;;4.84;100.00;102397.59;5032483;28;20113;-58
2022/10/11 01:32:26;;;;;;;24.40;14.10;;;;;;;4.82;100.00;102396.16;5009008;28;20060;-57
2022/10/11 01:35:25;;;;;;;24.35;13.98;;;;;;;4.83;100.00;102400.59;5032085;28;20029;-57
2022/10/11 01:38:06;;;;;;;22.05;13.93;;;;;;;4.72;100.00;102383.00;5017904;28;20095;-58
2022/10/11 01:40:40;;;;;;;23.38;14.82;;;;;;;4.73;100.00;102384.66;5031971;28;20029;-57
2022/10/11 01:43:08;;;;;;;23.40;14.30;;;;;;;4.74;100.00;102397.31;5031672;28;20052;-57
2022/10/11 01:45:33;;;;;;;22.67;13.82;;;;;;;4.74;100.00;102407.44;5031654;28;20101;-57
2022/10/11 01:48:04;;;;;;;23.55;13.82;;;;;;;4.61;100.00;102383.78;5031428;28;20116;-57
2022/10/11 01:50:43;;;;;;;23.58;13.38;;;;;;;4.66;100.00;102397.63;5031413;28;20025;-57
2022/10/11 01:53:46;;;;;;;22.35;13.93;;;;;;;4.65;100.00;102398.69;5031636;28;20465;-58
2022/10/11 01:56:20;;;;;;;24.80;13.68;;;;;;;4.62;100.00;102402.72;5031696;28;20094;-58
2022/10/11 01:59:29;;;;;;;22.08;13.82;;;;;;;4.53;100.00;102391.19;5031008;28;20115;-58
2022/10/11 02:02:11;;;;;;;22.88;13.32;;;;;;;4.43;100.00;102381.84;5031883;28;20124;-58
2022/10/11 02:04:44;;;;;;;22.58;13.55;;;;;;;4.46;100.00;102400.59;5031369;28;20033;-59
2022/10/11 02:07:18;;;;;;;23.50;13.88;;;;;;;4.42;100.00;102399.34;5031444;28;20099;-57
2022/10/11 02:10:02;;;;;;;25.40;13.60;;;;;;;4.45;100.00;102416.16;5031845;28;20025;-58
2022/10/11 02:12:36;;;;;;;24.05;13.85;;;;;;;4.45;100.00;102418.09;5031234;28;20462;-58
2022/10/11 02:15:05;;;;;;;24.58;14.18;;;;;;;4.41;100.00;102403.16;5031416;28;20049;-58
2022/10/11 02:17:35;;;;;;;23.98;14.10;;;;;;;4.40;100.00;102406.94;5031290;28;20130;-58
2022/10/11 02:20:09;;;;;;;23.23;13.40;;;;;;;4.45;100.00;102426.31;5030915;28;20060;-59
2022/10/11 02:22:39;;;;;;;24.10;13.63;;;;;;;4.41;100.00;102427.81;5030979;28;20044;-59
2022/10/11 02:25:09;;;;;;;25.30;14.35;;;;;;;4.41;100.00;102423.19;5031341;28;20525;-59
2022/10/11 02:27:37;;;;;;;24.23;14.77;;;;;;;4.33;100.00;102415.25;5030929;28;20170;-59
2022/10/11 02:30:06;;;;;;;24.23;14.20;;;;;;;4.37;100.00;102421.94;5030928;28;20114;-58
2022/10/11 02:32:32;;;;;;;24.05;14.23;;;;;;;4.43;100.00;102423.81;5030781;28;20049;-57
2022/10/11 02:35:00;;;;;;;23.40;14.32;;;;;;;4.39;100.00;102417.09;5031050;28;20083;-58
2022/10/11 02:37:43;;;;;;;24.25;14.30;;;;;;;4.40;100.00;102424.25;5031193;28;20033;-58
2022/10/11 02:40:20;;;;;;;23.17;14.68;;;;;;;4.40;100.00;102432.47;5031157;28;20044;-58
2022/10/11 02:42:57;;;;;;;24.35;14.93;;;;;;;4.35;100.00;102413.09;5030765;28;20021;-58
2022/10/11 02:45:42;;;;;;;27.70;15.07;;;;;;;4.39;100.00;102424.47;5030966;28;20039;-59
2022/10/11 02:48:10;;;;;;;24.05;15.43;;;;;;;4.40;100.00;102428.88;5031084;28;20057;-59
2022/10/11 02:50:38;;;;;;;25.75;16.02;;;;;;;4.33;100.00;102416.06;5030708;28;20087;-58
2022/10/11 02:53:03;;;;;;;25.17;15.40;;;;;;;4.44;100.00;102425.44;5030768;28;20117;-58
2022/10/11 02:55:29;;;;;;;27.83;16.67;;;;;;;4.48;100.00;102423.13;5030541;28;20068;-57
2022/10/11 02:57:55;;;;;;;26.45;15.48;;;;;;;4.46;100.00;102430.72;5030737;28;20033;-59
2022/10/11 03:00:20;;;;;;;25.02;15.20;;;;;;;4.41;100.00;102425.91;5030598;28;20109;-57
2022/10/11 03:02:45;;;;;;;25.83;15.07;;;;;;;4.36;100.00;102428.47;5030486;28;20116;-59
2022/10/11 03:05:11;;;;;;;28.13;15.30;;;;;;;4.31;100.00;102425.59;5030584;28;20025;-58
2022/10/11 03:07:36;;;;;;;26.35;15.30;;;;;;;4.29;100.00;102422.22;5030350;28;20112;-59
2022/10/11 03:10:02;;;;;;;24.35;15.35;;;;;;;4.28;100.00;102432.38;5030499;28;20461;-59
2022/10/11 03:12:27;;;;;;;28.60;16.13;;;;;;;4.28;100.00;102437.00;5030256;28;20128;-59
2022/10/11 03:14:52;;;;;;;25.17;16.60;;;;;;;4.25;100.00;102435.53;5030341;28;20077;-58
2022/10/11 03:17:18;;;;;;;25.52;15.85;;;;;;;4.22;100.00;102431.38;5030508;28;20393;-58
2022/10/11 03:19:43;;;;;;;24.55;15.40;;;;;;;4.20;100.00;102433.47;5029973;28;20030;-57
2022/10/11 03:22:08;;;;;;;25.33;15.70;;;;;;;4.17;100.00;102435.84;5030148;28;20516;-57
2022/10/11 03:24:34;;;;;;;25.10;15.88;;;;;;;4.16;100.00;102439.63;5030356;28;20033;-58
2022/10/11 03:26:59;;;;;;;23.13;15.10;;;;;;;4.11;100.00;102436.75;5030332;28;20095;-57
2022/10/11 03:29:24;;;;;;;25.23;15.43;;;;;;;4.09;100.00;102436.13;5030300;28;20033;-59
2022/10/11 03:31:49;;;;;;;24.38;15.00;;;;;;;4.08;100.00;102431.69;5030578;28;20022;-59
2022/10/11 03:34:15;;;;;;;23.35;15.00;;;;;;;4.01;100.00;102429.84;5034305;28;20326;-58
2022/10/11 03:36:40;;;;;;;24.40;14.98;;;;;;;4.00;100.00;102436.41;5034127;28;20147;-57
2022/10/11 03:39:05;;;;;;;25.80;15.80;;;;;;;3.94;100.00;102430.97;5034218;28;20060;-59
2022/10/11 03:41:31;;;;;;;24.90;15.20;;;;;;;3.94;100.00;102436.44;5033846;28;20499;-59
2022/10/11 03:43:56;;;;;;;23.75;15.10;;;;;;;3.96;100.00;102440.63;5034129;28;20037;-60
2022/10/11 03:46:22;;;;;;;26.48;15.63;;;;;;;3.94;100.00;102445.47;5034269;28;20485;-59
2022/10/11 03:48:47;;;;;;;22.08;14.70;;;;;;;3.90;100.00;102447.81;5034023;28;20025;-59
2022/10/11 03:51:13;;;;;;;24.63;15.68;;;;;;;3.92;100.00;102450.31;5034167;28;20393;-59
2022/10/11 03:53:39;;;;;;;25.73;15.68;;;;;;;3.86;100.00;102457.56;5034413;28;20025;-60
2022/10/11 03:56:04;;;;;;;25.40;15.30;;;;;;;3.85;100.00;102460.50;5034211;28;20083;-59
2022/10/11 03:58:30;;;;;;;24.67;15.18;;;;;;;3.77;100.00;102461.63;5033962;28;20025;-60
2022/10/11 04:00:55;;;;;;;23.33;15.05;;;;;;;3.71;100.00;102459.75;5034222;28;20429;-60
2022/10/11 04:03:20;;;;;;;24.65;14.38;;;;;;;3.63;100.00;102449.06;5034164;28;20025;-61
2022/10/11 04:05:46;;;;;;;23.48;15.40;;;;;;;3.64;100.00;102451.56;5034073;28;20033;-63
2022/10/11 04:08:11;;;;;;;22.63;15.40;;;;;;;3.62;100.00;102459.19;5033810;28;20159;-58
2022/10/11 04:10:36;;;;;;;23.80;15.30;;;;;;;3.58;100.00;102458.78;5033980;28;20030;-59
2022/10/11 04:13:02;;;;;;;23.95;15.40;;;;;;;3.56;100.00;102466.38;5033727;28;20077;-59
2022/10/11 04:15:27;;;;;;;24.15;15.05;;;;;;;3.52;100.00;102465.13;5033973;28;20328;-59
2022/10/11 04:17:52;;;;;;;21.45;13.90;;;;;;;3.50;100.00;102469.97;5033731;28;20038;-59
2022/10/11 04:20:18;;;;;;;20.50;13.88;;;;;;;3.44;100.00;102459.91;5034004;28;20056;-59
2022/10/11 04:22:43;;;;;;;21.20;13.65;;;;;;;3.44;100.00;102473.59;5033532;28;20498;-58
2022/10/11 04:25:09;;;;;;;23.25;13.32;;;;;;;3.43;100.00;102486.44;5033522;28;20112;-59
2022/10/11 04:27:34;;;;;;;20.40;13.57;;;;;;;3.39;100.00;102487.09;5033742;28;20127;-58
2022/10/11 04:29:59;;;;;;;20.05;12.90;;;;;;;3.35;100.00;102489.41;5033500;28;20061;-58
2022/10/11 04:32:25;;;;;;;22.45;13.13;;;;;;;3.31;100.00;102493.63;5033252;28;20052;-58
2022/10/11 04:34:50;;;;;;;20.92;13.27;;;;;;;3.28;100.00;102494.06;5033382;28;20022;-58
2022/10/11 04:37:16;;;;;;;20.83;14.10;;;;;;;3.25;100.00;102494.50;5033504;28;20045;-58
2022/10/11 04:39:42;;;;;;;22.55;13.80;;;;;;;3.22;100.00;102493.03;5032044;28;20029;-57
2022/10/11 04:42:07;;;;;;;21.17;14.07;;;;;;;3.20;100.00;102500.63;5033371;28;20404;-58
2022/10/11 04:44:32;;;;;;;20.30;13.57;;;;;;;3.21;100.00;102495.97;5032401;28;20029;-58
2022/10/11 04:46:58;;;;;;;24.23;14.30;;;;;;;3.18;100.00;102499.13;5033200;28;20480;-59
2022/10/11 04:49:23;;;;;;;21.45;14.20;;;;;;;3.17;100.00;102497.47;5033391;28;20053;-59
2022/10/11 04:51:48;;;;;;;22.08;14.05;;;;;;;3.12;100.00;102495.38;5033096;28;20029;-59
2022/10/11 04:54:14;;;;;;;22.58;14.35;;;;;;;3.15;100.00;102507.78;5033149;28;20458;-58
2022/10/11 04:56:39;;;;;;;21.98;14.25;;;;;;;3.09;100.00;102502.13;5032914;28;20116;-59
2022/10/11 04:59:04;;;;;;;21.67;14.10;;;;;;;3.09;100.00;102504.84;5033149;28;20029;-58
2022/10/11 05:01:30;;;;;;;20.60;14.30;;;;;;;3.05;100.00;102506.34;5031329;28;20037;-57
2022/10/11 05:03:55;;;;;;;20.73;14.07;;;;;;;3.04;100.00;102506.53;5033102;28;20331;-59
2022/10/11 05:06:20;;;;;;;23.33;14.10;;;;;;;3.04;100.00;102503.81;5033068;28;20114;-58
2022/10/11 05:08:46;;;;;;;20.70;14.05;;;;;;;3.00;100.00;102503.41;5032485;28;20072;-57
2022/10/11 05:11:12;;;;;;;21.08;13.70;;;;;;;2.97;100.00;102506.59;5032241;28;20037;-58
2022/10/11 05:13:38;;;;;;;21.38;14.25;;;;;;;2.96;100.00;102507.63;5031898;28;20029;-59
2022/10/11 05:16:04;;;;;;;20.63;13.65;;;;;;;2.95;100.00;102509.50;5032393;28;20445;-58
2022/10/11 05:18:29;;;;;;;21.40;14.07;;;;;;;2.95;100.00;102516.88;5030215;28;20037;-58
2022/10/11 05:21:04;;;;;;;22.23;14.38;;;;;;;2.94;100.00;102512.47;5032079;28;20036;-58
2022/10/11 05:23:31;;;;;;;21.13;13.88;;;;;;;2.91;100.00;102516.47;5032567;28;20104;-58
2022/10/11 05:25:57;;;;;;;19.85;14.25;;;;;;;2.89;100.00;102521.31;5032608;28;20053;-57
2022/10/11 05:28:22;;;;;;;19.58;13.00;;;;;;;2.87;100.00;102515.22;5032118;28;20065;-60
2022/10/11 05:30:48;;;;;;;19.90;13.60;;;;;;;2.81;100.00;102510.59;5032175;28;20041;-58
2022/10/11 05:33:13;;;;;;;22.05;13.75;;;;;;;2.87;100.00;102528.06;5031815;28;20029;-59
2022/10/11 05:35:39;;;;;;;23.05;14.00;;;;;;;2.85;100.00;102522.78;5031824;28;20040;-59
2022/10/11 05:38:04;;;;;;;21.65;13.23;;;;;;;2.84;100.00;102517.53;5032025;28;20164;-61
2022/10/11 05:40:30;;;;;;;19.65;12.98;;;;;;;2.83;100.00;102513.97;5031697;28;20025;-58
2022/10/11 05:42:55;;;;;;;20.58;13.77;;;;;;;2.77;100.00;102518.41;5029799;28;20435;-59
2022/10/11 05:45:20;;;;;;;20.35;12.98;;;;;;;2.80;100.00;102522.59;5031009;28;20117;-58
2022/10/11 05:47:46;;;;;;;22.15;14.85;;;;;;;2.79;100.00;102529.94;5031328;28;20048;-60
2022/10/11 05:50:11;;;;;;;23.25;14.68;;;;;;;2.70;100.00;102528.47;5030014;28;20126;-60
2022/10/11 05:52:36;;;;;;;23.63;14.35;;;;;;;2.71;100.00;102532.06;5031563;28;20143;-58
2022/10/11 05:55:02;;;;;;;23.42;14.48;;;;;;;2.71;100.00;102537.53;5030596;28;20442;-59
2022/10/11 05:57:28;;;;;;;21.02;14.43;;;;;;;2.70;100.00;102536.66;5030769;28;20473;-60
2022/10/11 05:59:53;;;;;;;21.90;14.10;;;;;;;2.70;100.00;102533.94;5031447;28;20037;-59
2022/10/11 06:02:18;;;;;;;22.38;14.50;;;;;;;2.71;100.00;102540.25;5031693;28;20469;-58
2022/10/11 06:04:44;;;;;;;21.23;14.27;;;;;;;2.70;100.00;102547.59;5029359;28;20032;-59
2022/10/11 06:07:09;;;;;;;22.02;14.85;;;;;;;2.70;100.00;102541.31;5031002;28;20095;-59
2022/10/11 06:09:34;;;;;;;20.83;14.48;;;;;;;2.70;100.00;102544.03;5031325;28;20057;-59
2022/10/11 06:12:00;;;;;;;20.88;14.23;;;;;;;2.73;100.00;102546.38;5030175;28;20466;-59
2022/10/11 06:14:25;;;;;;;23.05;14.43;;;;;;;2.75;100.00;102545.09;5030849;28;20056;-60
2022/10/11 06:16:50;;;;;;;22.20;14.35;;;;;;;2.77;100.00;102553.94;5031624;28;20171;-60
2022/10/11 06:19:16;;;;;;;20.70;13.95;;;;;;;2.81;100.00;102554.34;5030956;28;20049;-61
2022/10/11 06:21:41;;;;;;;20.63;13.63;;;;;;;2.84;100.00;102550.34;5031347;28;20057;-58
2022/10/11 06:24:08;;;;;;;21.52;14.00;;;;;;;2.88;100.00;102562.53;5031683;28;20060;-59
2022/10/11 06:26:33;;;;;;;22.90;14.65;;;;;;;2.93;100.00;102560.81;5031565;28;20064;-59
2022/10/11 06:28:59;;;;;;;26.33;16.00;;;;;;;2.99;100.00;102561.88;5030743;28;20029;-60
2022/10/11 06:31:24;;;;;;;23.20;14.50;;;;;;;2.99;100.00;102561.03;5029767;28;20116;-59
2022/10/11 06:33:50;;;;;;;21.75;14.52;;;;;;;3.05;100.00;102571.97;5027848;28;20021;-60
2022/10/11 06:36:15;;;;;;;21.55;14.55;;;;;;;3.15;100.00;102567.97;5028902;28;20060;-59
2022/10/11 06:38:41;;;;;;;22.52;14.50;;;;;;;3.19;100.00;102570.06;5029664;28;20071;-59
2022/10/11 06:41:11;;;;;;;22.77;15.55;;;;;;;3.25;100.00;102576.56;5030053;28;20120;-61
2022/10/11 06:43:36;;;;;;;23.48;15.52;;;;;;;3.32;100.00;102569.19;5029424;28;20477;-60
2022/10/11 06:46:01;;;;;;;25.67;16.38;;;;;;;3.41;100.00;102577.97;5030380;28;20025;-60
2022/10/11 06:48:26;;;;;;;24.15;17.20;;;;;;;3.49;100.00;102574.16;5030258;28;20389;-63
2022/10/11 06:50:52;;;;;;;23.50;16.90;;;;;;;3.55;100.00;102578.78;5029339;28;20030;-60
2022/10/11 06:53:17;;;;;;;25.02;16.80;;;;;;;3.62;100.00;102581.50;5030811;28;20087;-60
2022/10/11 06:55:42;;;;;;;26.75;18.33;;;;;;;3.70;100.00;102581.25;5031016;28;20066;-60
2022/10/11 06:58:08;;;;;;;26.98;17.35;;;;;;;3.79;100.00;102592.78;5030938;28;20029;-59
2022/10/11 07:00:33;;;;;;;23.98;17.45;;;;;;;3.87;100.00;102587.91;5030717;28;20549;-60
2022/10/11 07:02:59;;;;;;;27.10;17.75;;;;;;;3.96;100.00;102588.50;5030803;28;20067;-60
2022/10/11 07:05:24;;;;;;;29.38;18.13;;;;;;;4.07;100.00;102597.91;5030588;28;20033;-59
2022/10/11 07:07:49;;;;;;;25.70;18.08;;;;;;;4.17;100.00;102590.06;5032956;28;20129;-60
2022/10/11 07:10:14;;;;;;;28.05;18.02;;;;;;;4.27;100.00;102591.47;5035654;28;20175;-60
2022/10/11 07:12:43;;;;;;;25.95;18.55;;;;;;;4.39;100.00;102595.19;5035156;28;20049;-60
2022/10/11 07:15:09;;;;;;;27.67;18.63;;;;;;;4.51;100.00;102593.44;5034679;28;20042;-59
2022/10/11 07:17:34;;;;;;;28.77;18.40;;;;;;;4.60;100.00;102601.38;5034290;28;20029;-60
2022/10/11 07:20:00;;;;;;;27.55;18.67;;;;;;;4.71;100.00;102600.66;5034695;28;20045;-59
2022/10/11 07:22:25;;;;;;;30.15;19.05;;;;;;;4.82;100.00;102602.66;5035225;28;20339;-59
2022/10/11 07:24:50;;;;;;;27.75;18.10;;;;;;;4.90;100.00;102603.47;5034618;28;20025;-63
2022/10/11 07:27:16;;;;;;;30.17;20.58;;;;;;;4.96;100.00;102600.63;5034929;28;20071;-63
2022/10/11 07:29:41;;;;;;;28.67;18.90;;;;;;;5.06;100.00;102602.88;5026330;28;20462;-62
2022/10/11 07:32:07;;;;;;;26.10;19.42;;;;;;;5.13;100.00;102605.56;5013541;28;20080;-62
2022/10/11 07:34:33;;;;;;;29.25;19.25;;;;;;;5.20;100.00;102609.09;5013050;28;20045;-61
2022/10/11 07:36:58;;;;;;;27.42;19.10;;;;;;;5.27;100.00;102603.53;5013287;28;20030;-62
2022/10/11 07:39:24;;;;;;;27.02;19.10;;;;;;;5.36;100.00;102606.81;5012970;28;20036;-62
2022/10/11 07:41:49;;;;;;;29.35;20.33;;;;;;;5.43;100.00;102608.41;5013312;28;20052;-63
2022/10/11 07:44:14;;;;;;;27.40;19.40;;;;;;;5.50;100.00;102613.84;5013703;28;20030;-62
2022/10/11 07:46:40;;;;;;;30.05;19.55;;;;;;;5.58;100.00;102612.69;5013538;28;20066;-62
2022/10/11 07:49:05;;;;;;;27.98;19.95;;;;;;;5.65;100.00;102621.69;5028068;28;20379;-63
2022/10/11 07:51:31;;;;;;;28.20;20.38;;;;;;;5.67;100.00;102602.25;5012582;28;20041;-61
2022/10/11 07:53:57;;;;;;;27.83;19.10;;;;;;;5.84;100.00;102618.94;5012400;28;20458;-62
2022/10/11 07:56:25;;;;;;;28.42;20.08;;;;;;;5.89;100.00;102613.56;5012326;28;20034;-63
2022/10/11 07:58:52;;;;;;;26.48;19.27;;;;;;;6.04;100.00;102621.44;5011749;28;20034;-62
2022/10/11 08:01:18;;;;;;;29.80;20.60;;;;;;;6.15;100.00;102617.06;5009985;28;20406;-62
2022/10/11 08:03:44;;;;;;;27.77;19.58;;;;;;;6.24;100.00;102624.78;5011749;28;20022;-62
2022/10/11 08:06:12;;;;;;;25.63;19.65;;;;;;;6.28;100.00;102613.31;5011545;28;20478;-62
2022/10/11 08:08:38;;;;;;;28.35;19.45;;;;;;;6.45;100.00;102621.72;5011863;28;20322;-63
2022/10/11 08:11:03;;;;;;;31.17;19.73;;;;;;;6.56;100.00;102623.66;5011914;28;20030;-62
2022/10/11 08:13:29;;;;;;;26.17;19.20;;;;;;;6.67;100.00;102622.00;5011004;28;20111;-63
2022/10/11 08:15:55;;;;;;;26.33;19.00;;;;;;;6.76;100.00;102631.59;5015055;28;20030;-62
2022/10/11 08:18:20;;;;;;;32.10;18.65;;;;;;;6.86;100.00;102629.09;5009672;28;20034;-62
2022/10/11 08:20:46;;;;;;;26.38;18.73;;;;;;;6.93;100.00;102630.94;5011564;28;20105;-61
2022/10/11 08:23:11;;;;;;;26.80;18.60;;;;;;;7.01;100.00;102630.56;5011696;28;20401;-62
2022/10/11 08:25:42;;;;;;;29.55;18.85;;;;;;;7.06;100.00;102618.84;5011473;28;20033;-62
2022/10/11 08:28:08;;;;;;;27.85;18.85;;;;;;;7.23;100.00;102636.31;5011763;28;20112;-63
2022/10/11 08:30:35;;;;;;;25.80;19.50;;;;;;;7.37;100.00;102638.84;5012337;28;20029;-63
2022/10/11 08:33:01;;;;;;;25.92;16.63;;;;;;;7.47;100.00;102639.91;5011481;28;20438;-62
2022/10/11 08:35:26;;;;;;;26.27;18.65;;;;;;;7.57;100.00;102638.44;5011664;28;20044;-62
2022/10/11 08:37:52;;;;;;;25.48;17.38;;;;;;;7.67;100.00;102635.06;5031190;28;20384;-63
2022/10/11 08:40:20;;;;;;;24.10;16.65;;;;;;;7.79;100.00;102642.22;5031198;28;20030;-62
2022/10/11 08:43:01;;;;;;;24.45;15.98;;;;;;;7.94;100.00;102641.72;5029514;28;20025;-62
2022/10/11 08:45:47;;;;;;;26.08;16.65;;;;;;;8.11;100.00;102636.28;5030907;28;20033;-63
2022/10/11 08:48:15;;;;;;;25.52;16.10;;;;;;;8.27;100.00;102644.81;5030737;28;20082;-62
2022/10/11 08:50:45;;;;;;;27.05;15.65;;;;;;;8.41;100.00;102648.97;5030584;28;20093;-62
2022/10/11 08:53:31;;;;;;;26.63;15.52;;;;;;;8.53;100.00;102650.88;5030782;28;20025;-63
2022/10/11 08:55:57;;;;;;;24.83;14.82;;;;;;;8.63;100.00;102651.06;5030799;28;20414;-63
2022/10/11 08:58:33;;;;;;;22.10;13.93;;;;;;;8.63;100.00;102636.41;5030410;28;20064;-62
2022/10/11 09:01:00;;;;;;;24.50;14.82;;;;;;;8.75;100.00;102645.47;5028776;28;20033;-62
2022/10/11 09:03:35;;;;;;;26.05;14.60;;;;;;;8.91;100.00;102657.59;5030571;28;20121;-63
2022/10/11 09:06:11;;;;;;;23.55;13.95;;;;;;;8.94;98.59;102648.81;5030547;28;20096;-63
2022/10/11 09:08:52;;;;;;;24.67;14.02;;;;;;;9.08;98.52;102654.81;5030655;28;20048;-63
2022/10/11 09:11:44;;;;;;;24.10;14.05;;;;;;;9.19;98.77;102658.59;5030400;28;20039;-62
2022/10/11 09:14:38;;;;;;;22.33;14.57;;;;;;;9.30;97.60;102657.69;5030368;28;20053;-62
2022/10/11 09:17:16;;;;;;;23.77;14.68;;;;;;;9.42;97.51;102660.34;5030137;28;20049;-63
2022/10/11 09:19:47;;;;;;;24.27;13.40;;;;;;;9.52;94.97;102648.59;5030115;28;20022;-62
2022/10/11 09:22:42;;;;;;;22.30;14.35;;;;;;;9.62;94.62;102657.00;5029783;28;20060;-62
2022/10/11 09:25:32;;;;;;;23.55;14.32;;;;;;;9.60;94.64;102647.31;5027643;28;20604;-62
2022/10/11 09:28:09;;;;;;;21.67;13.90;;;;;;;9.79;93.45;102656.97;5029265;28;20126;-62
2022/10/11 09:30:39;;;;;;;22.92;14.10;;;;;;;9.80;93.66;102652.28;5028379;28;20402;-61
2022/10/11 09:33:22;;;;;;;22.13;13.50;;;;;;;9.89;92.83;102658.19;5029986;28;20040;-61
2022/10/11 09:35:50;;;;;;;23.85;14.90;;;;;;;9.96;93.41;102654.16;5030372;28;20029;-62
2022/10/11 09:38:42;;;;;;;23.50;13.88;;;;;;;10.01;93.04;102655.28;5030937;28;20050;-62
2022/10/11 09:41:22;;;;;;;25.55;14.55;;;;;;;10.02;91.67;102648.69;5029544;28;20116;-62
2022/10/11 09:43:49;;;;;;;21.80;12.90;;;;;;;10.15;90.88;102657.41;5029683;28;20040;-62
2022/10/11 09:46:36;;;;;;;21.50;12.80;;;;;;;10.27;89.66;102654.50;5029539;28;20025;-62
2022/10/11 09:49:12;;;;;;;23.05;12.73;;;;;;;10.35;89.12;102647.66;5029593;28;20056;-62
2022/10/11 09:51:42;;;;;;;22.00;12.95;;;;;;;10.46;88.49;102654.16;5029394;28;20121;-62
2022/10/11 09:54:09;;;;;;;23.10;12.50;;;;;;;10.54;88.14;102650.91;5029461;28;20469;-62
2022/10/11 09:56:40;;;;;;;25.40;12.45;;;;;;;10.62;87.72;102652.38;5028248;28;20456;-62
2022/10/11 09:59:26;;;;;;;23.27;11.88;;;;;;;10.72;86.98;102659.97;5029764;28;20053;-62
2022/10/11 10:02:13;;;;;;;22.50;11.00;;;;;;;10.79;85.88;102659.72;5027648;28;20444;-63
2022/10/11 10:05:00;;;;;;;21.25;11.02;;;;;;;10.83;83.73;102655.34;5029351;28;20034;-62
2022/10/11 10:07:28;;;;;;;23.02;11.15;;;;;;;10.86;83.59;102646.53;5029598;28;20074;-62
2022/10/11 10:09:54;;;;;;;22.88;10.52;;;;;;;10.98;82.46;102661.00;5029576;28;20079;-62
2022/10/11 10:12:25;;;;;;;20.80;10.00;;;;;;;10.98;80.49;102658.25;5029170;28;20518;-62
2022/10/11 10:15:12;;;;;;;21.92;10.98;;;;;;;11.18;80.63;102657.59;5029485;28;20076;-63
2022/10/11 10:17:38;;;;;;;22.77;10.90;;;;;;;11.26;78.99;102658.19;5029225;28;20033;-62
2022/10/11 10:20:05;;;;;;;17.30;9.52;;;;;;;11.35;78.37;102656.56;5029428;28;20334;-62
2022/10/11 10:22:34;;;;;;;19.52;9.43;;;;;;;11.38;76.16;102644.97;5029592;28;20354;-62
2022/10/11 10:25:02;;;;;;;20.85;9.65;;;;;;;11.48;75.97;102642.22;5028846;28;20028;-62
2022/10/11 10:27:30;;;;;;;21.75;10.32;;;;;;;11.54;74.38;102648.63;5028983;28;20071;-62
2022/10/11 10:30:15;;;;;;;21.63;9.60;;;;;;;11.61;76.83;102643.72;5029050;28;20136;-63
2022/10/11 10:33:01;;;;;;;21.13;10.40;;;;;;;11.67;75.11;102652.88;5028776;28;20416;-62
2022/10/11 10:35:56;;;;;;;19.98;9.55;;;;;;;11.74;75.55;102645.16;5028879;28;20030;-62
2022/10/11 10:38:34;;;;;;;22.92;9.40;;;;;;;11.79;71.85;102647.94;5027688;28;20076;-62
2022/10/11 10:41:18;;;;;;;21.95;9.90;;;;;;;11.84;71.99;102655.44;5028829;28;20458;-62
2022/10/11 10:43:50;;;;;;;22.13;9.00;;;;;;;11.93;68.42;102639.13;5028602;28;20470;-62
2022/10/11 10:46:44;;;;;;;16.75;8.88;;;;;;;12.09;69.62;102646.44;5028790;28;20436;-61
2022/10/11 10:49:39;;;;;;;21.73;10.20;;;;;;;12.12;71.63;102650.59;5029132;28;20470;-63
2022/10/11 10:52:29;;;;;;;19.50;9.73;;;;;;;12.11;72.36;102649.78;5028839;28;20021;-63
2022/10/11 10:54:58;;;;;;;17.67;9.90;;;;;;;12.16;70.44;102643.41;5029030;28;20030;-61
2022/10/11 10:57:32;;;;;;;21.88;10.38;;;;;;;12.24;68.96;102653.97;5028757;28;20393;-62
2022/10/11 11:00:19;;;;;;;18.83;9.23;;;;;;;12.25;68.28;102641.78;5028838;28;20029;-62
2022/10/11 11:03:00;;;;;;;17.52;8.73;;;;;;;12.26;69.36;102623.16;5026899;28;20497;-62
2022/10/11 11:05:43;;;;;;;22.73;10.07;;;;;;;12.40;69.22;102637.34;5028670;28;20030;-63
2022/10/11 11:08:19;;;;;;;19.70;9.15;;;;;;;12.47;69.99;102635.97;5028718;28;20063;-62
2022/10/11 11:11:06;;;;;;;20.05;8.88;;;;;;;12.53;68.54;102633.19;5028472;28;20121;-62
2022/10/11 11:13:56;;;;;;;18.15;9.43;;;;;;;12.54;69.88;102632.94;5028189;28;20422;-62
2022/10/11 11:16:26;;;;;;;17.33;9.10;;;;;;;12.46;67.04;102625.97;5028257;28;20021;-63
2022/10/11 11:19:26;;;;;;;19.63;9.30;;;;;;;12.52;68.39;102621.28;5028252;28;20576;-63
2022/10/11 11:22:02;;;;;;;16.80;8.50;;;;;;;12.57;64.62;102626.00;5026906;28;20124;-62
2022/10/11 11:25:03;;;;;;;18.38;8.57;;;;;;;12.71;63.77;102631.84;5028381;28;20478;-62